Creston, Indiana
Current Conditions -  °F | °C
As of 12:55 PM on Friday 21 Nov 2014 (Local Time) from KIGQ Reporting Station
Clear Clear  
Wind Chill: 24°   Ceiling: Unl
Heat Index: 32°   Visibility: 10mi
Dew Point:   Wind: 10mph
Humidity: 34%   Direction: 190°S
Pressure: 30.41"   Gusts: NA
Location:  41.2585°N, 87.4193°W
Report Text: KIGQ 211855Z AUTO 19009KT 10SM CLR 00/M14 A3041 RMK AO2 T00001142
Loading
Personal Weather Stations






























Interactive Weather Map New forecast layout! Learn more

10-Day Weather Forecast

Advertisements
Track Severe Weather on mobile